Time;durP1;ratioP1;P1;durP2;ratioP2;P2;SDS_P1;SDS_P2;PMS_P1;PMS_P2;Temp;Humidity;BMP_temperature;BMP_pressure;BME280_temperature;BME280_humidity;BME280_pressure;Samples;Min_cycle;Max_cycle;Signal;HPM_P1;HPM_P2
2021/11/20 00:01:16;;;;;;;;;24.25;20.50;;;;;12.96;100.00;102688.75;5016074;28;45206;-74
2021/11/20 00:03:44;;;;;;;;;24.50;22.25;;;;;12.96;100.00;102688.75;5015930;28;45435;-74
2021/11/20 00:06:13;;;;;;;;;24.00;20.00;;;;;12.96;100.00;102685.25;4997908;28;46699;-75
2021/11/20 00:08:39;;;;;;;;;19.25;18.50;;;;;12.95;100.00;102683.47;5016108;28;45912;-74
2021/11/20 00:11:08;;;;;;;;;21.00;20.75;;;;;12.96;100.00;102680.97;4998365;28;45943;-72
2021/11/20 00:13:35;;;;;;;;;20.75;19.50;;;;;12.99;100.00;102683.78;5016136;28;45341;-75
2021/11/20 00:16:04;;;;;;;;;17.75;15.75;;;;;13.01;100.00;102683.84;5015297;28;45261;-74
2021/11/20 00:18:31;;;;;;;;;27.50;23.50;;;;;12.98;100.00;102678.44;5016040;28;45715;-74
2021/11/20 00:21:01;;;;;;;;;18.75;18.75;;;;;12.99;100.00;102678.56;5015584;28;45389;-75
2021/11/20 00:23:34;;;;;;;;;17.00;16.25;;;;;13.00;100.00;102676.84;5015870;28;45260;-73
2021/11/20 00:26:02;;;;;;;;;18.00;16.00;;;;;12.96;100.00;102667.03;5015380;28;46410;-75
2021/11/20 00:28:42;;;;;;;;;17.25;15.25;;;;;12.92;100.00;102645.16;5015497;28;45309;-76
2021/11/20 00:31:15;;;;;;;;;20.00;17.25;;;;;12.99;100.00;102670.75;5018556;28;45369;-74
2021/11/20 00:33:42;;;;;;;;;17.75;16.50;;;;;12.98;100.00;102662.84;5019136;28;45505;-74
2021/11/20 00:36:10;;;;;;;;;15.50;14.25;;;;;12.98;100.00;102660.25;5019226;28;45367;-75
2021/11/20 00:38:36;;;;;;;;;14.00;12.75;;;;;12.96;100.00;102657.56;5019371;28;45695;-72
2021/11/20 00:41:26;;;;;;;;;15.25;13.75;;;;;12.94;100.00;102653.94;5018943;28;45280;-72
2021/11/20 00:43:53;;;;;;;;;13.75;12.50;;;;;12.92;100.00;102655.53;5010621;28;45403;-72
2021/11/20 00:46:22;;;;;;;;;12.75;11.00;;;;;12.92;100.00;102654.66;5018884;28;46141;-72
2021/11/20 00:48:48;;;;;;;;;12.25;12.25;;;;;12.87;100.00;102649.16;5018632;28;45711;-73
2021/11/20 00:51:18;;;;;;;;;14.25;11.25;;;;;12.90;100.00;102651.97;5018982;28;45304;-72
2021/11/20 00:53:45;;;;;;;;;11.25;9.00;;;;;12.90;100.00;102648.47;5018652;28;45398;-72
2021/11/20 00:56:13;;;;;;;;;9.50;9.00;;;;;12.89;100.00;102647.56;5018528;28;46159;-72
2021/11/20 00:58:40;;;;;;;;;12.25;11.00;;;;;12.85;100.00;102637.75;5019021;28;45815;-72
2021/11/20 01:01:08;;;;;;;;;15.00;14.25;;;;;12.88;100.00;102634.44;5001004;28;45476;-72
2021/11/20 01:03:34;;;;;;;;;11.75;10.00;;;;;12.88;100.00;102635.38;5019043;28;45261;-72
2021/11/20 01:06:01;;;;;;;;;10.25;9.75;;;;;12.84;100.00;102636.88;5018601;28;46606;-72
2021/11/20 01:08:30;;;;;;;;;12.25;10.25;;;;;12.82;100.00;102633.28;5018501;28;45225;-72
2021/11/20 01:11:06;;;;;;;;;11.50;11.50;;;;;12.81;100.00;102635.75;5018290;28;45526;-73
2021/11/20 01:13:32;;;;;;;;;13.50;11.00;;;;;12.81;100.00;102628.88;5018816;28;45395;-72
2021/11/20 01:16:02;;;;;;;;;12.50;9.75;;;;;12.82;100.00;102637.56;5018018;28;45634;-72
2021/11/20 01:18:30;;;;;;;;;10.00;9.00;;;;;12.74;100.00;102611.06;5000617;28;45266;-72
2021/11/20 01:20:55;;;;;;;;;11.75;10.00;;;;;12.83;100.00;102628.97;5017907;28;45304;-72
2021/11/20 01:23:24;;;;;;;;;9.00;8.25;;;;;12.83;100.00;102626.34;5018580;28;45577;-71
2021/11/20 01:25:51;;;;;;;;;10.50;8.25;;;;;12.81;100.00;102613.28;5017535;28;45624;-73
2021/11/20 01:28:17;;;;;;;;;12.00;9.25;;;;;12.81;100.00;102613.28;5018247;28;45252;-72
2021/11/20 01:30:44;;;;;;;;;18.75;13.25;;;;;12.80;100.00;102610.56;5018186;28;45301;-73
2021/11/20 01:33:09;;;;;;;;;15.75;13.25;;;;;12.75;100.00;102612.84;5018775;28;45414;-73
2021/11/20 01:35:36;;;;;;;;;12.50;11.00;;;;;12.74;100.00;102611.06;5017913;28;45672;-73
2021/11/20 01:38:02;;;;;;;;;14.00;13.00;;;;;12.74;100.00;102612.78;4999891;28;45429;-72
2021/11/20 01:40:31;;;;;;;;;16.25;12.00;;;;;12.72;100.00;102607.47;5018110;28;45335;-73
2021/11/20 01:42:58;;;;;;;;;17.00;11.00;;;;;12.77;100.00;102606.06;5018106;28;45241;-73
2021/11/20 01:45:34;;;;;;;;;16.00;14.00;;;;;12.78;100.00;102609.59;5017949;28;46076;-72
2021/11/20 01:48:06;;;;;;;;;14.50;13.50;;;;;12.81;100.00;102604.56;5017806;28;45368;-72
2021/11/20 01:50:37;;;;;;;;;12.75;11.00;;;;;12.81;100.00;102595.06;5017992;28;45174;-72
2021/11/20 01:53:18;;;;;;;;;11.75;11.75;;;;;12.81;100.00;102594.16;5017912;28;45337;-71
2021/11/20 01:56:06;;;;;;;;;13.00;11.00;;;;;12.80;100.00;102602.75;5017323;28;45337;-71
2021/11/20 01:58:35;;;;;;;;;11.75;10.50;;;;;12.74;100.00;102590.25;5017771;28;45806;-72
2021/11/20 02:01:18;;;;;;;;;11.75;10.50;;;;;12.69;100.00;102587.38;5016220;28;45341;-71
2021/11/20 02:03:48;;;;;;;;;12.25;10.00;;;;;12.73;100.00;102597.97;5017293;28;45406;-71
2021/11/20 02:06:22;;;;;;;;;17.00;12.50;;;;;12.70;100.00;102583.97;5017464;28;45382;-71
2021/11/20 02:08:52;;;;;;;;;13.75;11.75;;;;;12.69;100.00;102582.16;5017215;28;45676;-71
2021/11/20 02:11:31;;;;;;;;;15.75;14.75;;;;;12.69;100.00;102583.88;5017181;28;45406;-72
2021/11/20 02:13:57;;;;;;;;;11.75;11.75;;;;;12.63;100.00;102568.78;5000334;28;45275;-72
2021/11/20 02:16:29;;;;;;;;;17.25;14.00;;;;;12.73;100.00;102580.69;5017401;28;45351;-71
2021/11/20 02:18:59;;;;;;;;;13.25;11.00;;;;;12.75;100.00;102591.19;5017410;28;45967;-72
2021/11/20 02:21:45;;;;;;;;;12.00;12.00;;;;;12.75;100.00;102586.88;5017714;28;45829;-72
2021/11/20 02:24:10;;;;;;;;;12.00;11.00;;;;;12.75;100.00;102586.88;5017157;28;45336;-73
2021/11/20 02:26:36;;;;;;;;;17.00;12.00;;;;;12.76;100.00;102590.38;5017567;28;45357;-71
2021/11/20 02:29:06;;;;;;;;;14.50;11.50;;;;;12.73;100.00;102569.38;5017091;28;45415;-73
2021/11/20 02:31:40;;;;;;;;;8.75;7.25;;;;;12.72;100.00;102572.78;4999610;28;45361;-72
2021/11/20 02:34:06;;;;;;;;;16.00;9.50;;;;;12.75;100.00;102578.19;5017928;28;45351;-73
2021/11/20 02:36:31;;;;;;;;;16.00;16.00;;;;;12.70;100.00;102572.69;5016921;28;45974;-73
2021/11/20 02:39:08;;;;;;;;;18.25;13.25;;;;;12.74;100.00;102579.88;5016866;28;45194;-72
2021/11/20 02:41:36;;;;;;;;;18.25;16.00;;;;;12.75;100.00;102566.06;5017302;28;45236;-72
2021/11/20 02:44:05;;;;;;;;;11.25;11.00;;;;;12.75;100.00;102567.78;5017147;28;45269;-72
2021/11/20 02:46:37;;;;;;;;;13.50;12.00;;;;;12.74;100.00;102564.28;5016833;28;45255;-72
2021/11/20 02:49:05;;;;;;;;;16.00;13.75;;;;;12.74;100.00;102566.00;5016298;28;45695;-73
2021/11/20 02:51:36;;;;;;;;;15.50;13.00;;;;;12.73;100.00;102564.19;5017035;28;45252;-73
2021/11/20 02:54:12;;;;;;;;;22.00;16.00;;;;;12.75;100.00;102566.06;5016194;28;45425;-74
2021/11/20 02:56:45;;;;;;;;;14.25;12.00;;;;;12.77;100.00;102554.09;5016876;28;45964;-73
2021/11/20 02:59:11;;;;;;;;;15.00;12.50;;;;;12.80;100.00;102550.78;5016951;28;45346;-73
2021/11/20 03:01:38;;;;;;;;;13.50;12.50;;;;;12.83;100.00;102549.28;5017190;28;45457;-72
2021/11/20 03:04:06;;;;;;;;;19.25;13.00;;;;;12.80;100.00;102540.38;5016805;28;45481;-72
2021/11/20 03:06:33;;;;;;;;;17.50;14.00;;;;;12.78;100.00;102540.28;5016639;28;45969;-72
2021/11/20 03:08:59;;;;;;;;;13.75;12.75;;;;;12.77;100.00;102540.19;5016433;28;45862;-73
2021/11/20 03:11:26;;;;;;;;;16.75;12.00;;;;;12.80;100.00;102536.09;5016850;28;45757;-73
2021/11/20 03:13:54;;;;;;;;;13.25;12.75;;;;;12.81;100.00;102532.69;5016381;28;45514;-72
2021/11/20 03:16:21;;;;;;;;;16.00;14.50;;;;;12.73;100.00;102512.22;4998688;28;46156;-73
2021/11/20 03:18:47;;;;;;;;;20.75;15.25;;;;;12.77;100.00;102522.91;5015770;28;45506;-73
2021/11/20 03:21:15;;;;;;;;;13.25;12.25;;;;;12.77;100.00;102522.00;5016512;28;45313;-73
2021/11/20 03:23:47;;;;;;;;;14.50;14.00;;;;;12.71;100.00;102512.13;5016501;28;45472;-72
2021/11/20 03:26:13;;;;;;;;;16.75;13.50;;;;;12.73;100.00;102518.31;4999029;28;45297;-73
2021/11/20 03:28:39;;;;;;;;;16.25;14.50;;;;;12.67;100.00;102498.03;5016388;28;45309;-72
2021/11/20 03:31:04;;;;;;;;;17.00;13.50;;;;;12.71;100.00;102506.94;5016391;28;45801;-73
2021/11/20 03:33:30;;;;;;;;;16.75;12.00;;;;;12.66;100.00;102500.53;5016524;28;45748;-72
2021/11/20 03:35:57;;;;;;;;;12.00;9.25;;;;;12.69;100.00;102501.59;5015863;28;46167;-74
2021/11/20 03:38:22;;;;;;;;;16.00;14.00;;;;;12.60;100.00;102485.44;5016236;28;45351;-74
2021/11/20 03:40:48;;;;;;;;;11.50;10.00;;;;;12.68;100.00;102489.44;5015290;28;45602;-72
2021/11/20 03:43:15;;;;;;;;;19.50;13.25;;;;;12.66;100.00;102491.03;4998577;28;45627;-74
2021/11/20 03:45:40;;;;;;;;;14.75;10.50;;;;;12.55;100.00;102473.88;5015702;28;46130;-72
2021/11/20 03:48:08;;;;;;;;;19.75;16.75;;;;;12.57;100.00;102484.34;5016136;28;45198;-73
2021/11/20 03:50:35;;;;;;;;;18.50;14.75;;;;;12.56;100.00;102480.88;5016139;28;45200;-74
2021/11/20 03:53:00;;;;;;;;;15.75;14.75;;;;;12.56;100.00;102473.06;5015904;28;45332;-73
2021/11/20 03:55:36;;;;;;;;;16.00;13.00;;;;;12.58;100.00;102479.25;5015796;28;46190;-72
2021/11/20 03:58:03;;;;;;;;;18.00;14.75;;;;;12.58;100.00;102465.38;5015199;28;45469;-72
2021/11/20 04:00:33;;;;;;;;;15.25;12.75;;;;;12.57;100.00;102463.56;5016027;28;45341;-71
2021/11/20 04:02:59;;;;;;;;;12.75;10.75;;;;;12.52;100.00;102464.19;5015998;28;45245;-73
2021/11/20 04:05:26;;;;;;;;;13.00;11.50;;;;;12.52;100.00;102471.06;5015773;28;46915;-73
2021/11/20 04:07:52;;;;;;;;;13.50;12.75;;;;;12.50;100.00;102467.47;5019115;28;45335;-73
2021/11/20 04:10:20;;;;;;;;;10.00;7.00;;;;;12.44;100.00;102465.38;5019377;28;45376;-72
2021/11/20 04:12:46;;;;;;;;;15.25;13.50;;;;;12.31;100.00;102462.81;4999592;28;45571;-73
2021/11/20 04:15:14;;;;;;;;;16.00;10.50;;;;;12.15;100.00;102454.03;4999308;28;45261;-73
2021/11/20 04:17:40;;;;;;;;;14.50;10.50;;;;;12.02;100.00;102459.22;4999213;28;45367;-71
2021/11/20 04:20:10;;;;;;;;;8.50;8.00;;;;;11.92;100.00;102452.50;4999858;28;45364;-73
2021/11/20 04:22:35;;;;;;;;;15.25;10.50;;;;;11.90;100.00;102451.50;5000027;28;45261;-74
2021/11/20 04:25:03;;;;;;;;;14.25;13.00;;;;;11.88;100.00;102442.72;4999182;28;45360;-73
2021/11/20 04:27:28;;;;;;;;;8.50;7.00;;;;;11.94;100.00;102437.91;5016464;28;45806;-73
2021/11/20 04:29:54;;;;;;;;;9.25;8.50;;;;;11.90;100.00;102443.72;5021599;28;45245;-74
2021/11/20 04:32:19;;;;;;;;;5.50;5.25;;;;;11.80;100.00;102439.59;5021380;28;45750;-74
2021/11/20 04:34:45;;;;;;;;;9.00;7.25;;;;;11.62;100.00;102418.50;5018820;28;46260;-73
2021/11/20 04:37:11;;;;;;;;;9.75;7.75;;;;;11.64;100.00;102434.22;5018918;28;45339;-73
2021/11/20 04:39:36;;;;;;;;;9.50;7.00;;;;;11.64;100.00;102429.91;5019483;28;45272;-73
2021/11/20 04:42:02;;;;;;;;;8.25;6.00;;;;;11.60;100.00;102433.09;5018773;28;45652;-72
2021/11/20 04:44:28;;;;;;;;;10.50;9.50;;;;;11.59;100.00;102433.91;5018829;28;45483;-73
2021/11/20 04:46:54;;;;;;;;;10.50;7.75;;;;;11.51;100.00;102428.19;5018574;28;45289;-72
2021/11/20 04:49:19;;;;;;;;;8.25;6.50;;;;;11.48;100.00;102429.69;5018856;28;45415;-73
2021/11/20 04:51:45;;;;;;;;;7.00;6.75;;;;;11.39;100.00;102417.88;5018869;28;45345;-72
2021/11/20 04:54:11;;;;;;;;;8.50;6.50;;;;;11.44;100.00;102424.28;5018203;28;45467;-72
2021/11/20 04:56:37;;;;;;;;;8.00;6.50;;;;;11.50;100.00;102410.84;5018994;28;45737;-72
2021/11/20 04:59:03;;;;;;;;;8.25;5.50;;;;;11.54;100.00;102415.44;5018790;28;45225;-71
2021/11/20 05:01:29;;;;;;;;;9.00;8.00;;;;;11.64;100.00;102416.03;5018497;28;45325;-72
2021/11/20 05:03:59;;;;;;;;;6.25;5.00;;;;;11.70;100.00;102409.56;5017873;28;45881;-72
2021/11/20 05:06:34;;;;;;;;;8.25;5.75;;;;;11.76;100.00;102412.56;5018578;28;45928;-72
2021/11/20 05:09:00;;;;;;;;;6.25;3.50;;;;;11.83;100.00;102415.53;5019049;28;45447;-71
2021/11/20 05:11:28;;;;;;;;;9.00;8.50;;;;;11.86;100.00;102406.28;5000881;28;45284;-73
2021/11/20 05:13:54;;;;;;;;;8.75;5.00;;;;;11.89;100.00;102402.97;5018196;28;45328;-72
2021/11/20 05:16:20;;;;;;;;;8.00;7.00;;;;;11.93;100.00;102411.06;5017958;28;45392;-73
2021/11/20 05:18:46;;;;;;;;;5.00;5.00;;;;;11.97;100.00;102419.94;5018372;28;45604;-72
2021/11/20 05:21:13;;;;;;;;;5.25;4.75;;;;;11.93;100.00;102405.88;5018672;28;45492;-72
2021/11/20 05:23:39;;;;;;;;;6.00;6.00;;;;;11.94;100.00;102409.34;5018646;28;46022;-71
2021/11/20 05:26:08;;;;;;;;;8.75;4.75;;;;;11.95;100.00;102411.16;5018592;28;45328;-71
2021/11/20 05:28:34;;;;;;;;;6.25;6.00;;;;;11.89;100.00;102406.47;5018414;28;45265;-70
2021/11/20 05:31:01;;;;;;;;;4.00;4.00;;;;;11.96;100.00;102407.75;5000471;28;45360;-71
2021/11/20 05:33:38;;;;;;;;;7.75;5.75;;;;;11.93;100.00;102392.91;5000247;28;47058;-70
2021/11/20 05:36:06;;;;;;;;;7.00;6.25;;;;;11.98;100.00;102398.41;5017760;28;45494;-71
2021/11/20 05:38:33;;;;;;;;;6.50;6.50;;;;;11.95;100.00;102394.69;5018401;28;45244;-70
2021/11/20 05:40:59;;;;;;;;;7.00;7.00;;;;;12.02;100.00;102392.63;5018151;28;45228;-71
2021/11/20 05:43:25;;;;;;;;;5.00;5.00;;;;;12.01;100.00;102387.31;5018119;28;45482;-71
2021/11/20 05:45:56;;;;;;;;;4.25;4.25;;;;;12.00;100.00;102389.03;5017749;28;45255;-70
2021/11/20 05:48:21;;;;;;;;;6.50;6.50;;;;;11.97;100.00;102386.19;5018237;28;45244;-71
2021/11/20 05:50:48;;;;;;;;;6.50;4.50;;;;;11.92;100.00;102378.13;5018048;28;45302;-70
2021/11/20 05:53:17;;;;;;;;;6.50;5.50;;;;;11.95;100.00;102372.22;5017759;28;45924;-71
2021/11/20 05:55:44;;;;;;;;;7.00;7.00;;;;;11.95;100.00;102387.78;4999585;28;45924;-70
2021/11/20 05:58:10;;;;;;;;;6.50;6.50;;;;;11.94;100.00;102383.41;5000072;28;45555;-70
2021/11/20 06:00:41;;;;;;;;;7.25;7.25;;;;;11.84;100.00;102370.63;5018509;28;45494;-70
2021/11/20 06:03:09;;;;;;;;;12.25;8.50;;;;;11.93;100.00;102385.09;5018203;28;46066;-70
2021/11/20 06:05:35;;;;;;;;;5.75;5.50;;;;;11.96;100.00;102388.72;5018207;28;45328;-70
2021/11/20 06:08:02;;;;;;;;;6.75;4.75;;;;;11.96;100.00;102386.13;5017787;28;45247;-70
2021/11/20 06:10:28;;;;;;;;;8.75;6.25;;;;;12.02;100.00;102390.03;5017982;28;45286;-71
2021/11/20 06:12:54;;;;;;;;;6.75;5.00;;;;;12.02;100.00;102386.53;4999514;28;45267;-70
2021/11/20 06:15:20;;;;;;;;;6.50;6.50;;;;;12.02;100.00;102390.03;5017620;28;45331;-70
2021/11/20 06:17:46;;;;;;;;;7.00;7.00;;;;;12.05;100.00;102398.00;5017503;28;45435;-71
2021/11/20 06:20:15;;;;;;;;;7.75;4.75;;;;;12.01;100.00;102388.25;5016519;28;45501;-70
2021/11/20 06:22:41;;;;;;;;;6.75;6.75;;;;;12.04;100.00;102390.13;4999198;28;46811;-72
2021/11/20 06:25:09;;;;;;;;;9.00;7.00;;;;;11.98;100.00;102380.25;5017687;28;45424;-73
2021/11/20 06:27:35;;;;;;;;;4.25;4.25;;;;;12.02;100.00;102376.16;5016854;28;45723;-73
2021/11/20 06:30:01;;;;;;;;;7.50;7.00;;;;;12.04;100.00;102384.94;5017427;28;45709;-73
2021/11/20 06:32:27;;;;;;;;;11.75;6.75;;;;;12.00;100.00;102390.72;5017058;28;45491;-73
2021/11/20 06:34:54;;;;;;;;;11.25;8.50;;;;;11.96;100.00;102393.91;5015985;28;45926;-73
2021/11/20 06:37:19;;;;;;;;;13.00;10.50;;;;;11.91;100.00;102393.59;5017303;28;45419;-73
2021/11/20 06:39:45;;;;;;;;;9.00;8.00;;;;;11.88;100.00;102389.09;5017259;28;45602;-72
2021/11/20 06:42:11;;;;;;;;;8.50;7.00;;;;;11.90;100.00;102397.00;5016742;28;45949;-74
2021/11/20 06:44:37;;;;;;;;;8.25;6.25;;;;;11.91;100.00;102396.19;5018716;28;45219;-74
2021/11/20 06:47:03;;;;;;;;;7.75;6.00;;;;;11.91;100.00;102397.09;5002090;28;45264;-72
2021/11/20 06:49:29;;;;;;;;;7.25;7.25;;;;;11.90;100.00;102395.28;5018172;28;45622;-72
2021/11/20 06:51:55;;;;;;;;;8.25;6.00;;;;;11.83;100.00;102381.81;5016733;28;46370;-71
2021/11/20 06:54:21;;;;;;;;;10.00;7.50;;;;;11.86;100.00;102389.78;5016406;28;46212;-70
2021/11/20 06:56:52;;;;;;;;;8.75;6.75;;;;;11.81;100.00;102389.50;5016576;28;45340;-71
2021/11/20 07:01:53;;;;;;;;;13.25;10.00;;;;;11.69;100.00;102380.91;5016358;28;45723;-72
2021/11/20 07:04:28;;;;;;;;;10.25;9.00;;;;;11.61;100.00;102381.31;5015779;28;45762;-73
2021/11/20 07:07:05;;;;;;;;;14.25;11.50;;;;;11.57;100.00;102374.13;5015800;28;45440;-71
2021/11/20 07:09:31;;;;;;;;;10.25;8.00;;;;;11.57;100.00;102373.22;5014746;28;45359;-73
2021/11/20 07:11:57;;;;;;;;;10.00;9.00;;;;;11.59;100.00;102371.66;5015292;28;45904;-72
2021/11/20 07:14:22;;;;;;;;;7.50;6.25;;;;;11.59;100.00;102369.06;5015559;28;45931;-71
2021/11/20 07:16:49;;;;;;;;;8.75;8.50;;;;;11.63;100.00;102373.63;5015616;28;45327;-72
2021/11/20 07:19:15;;;;;;;;;15.25;12.50;;;;;11.62;100.00;102379.59;5016164;28;45584;-71
2021/11/20 07:21:41;;;;;;;;;11.50;8.75;;;;;11.60;100.00;102368.25;5016056;28;46052;-73
2021/11/20 07:24:10;;;;;;;;;12.75;9.00;;;;;11.65;100.00;102376.34;5016244;28;45363;-71
2021/11/20 07:26:37;;;;;;;;;7.25;6.00;;;;;11.66;100.00;102370.34;5016843;28;45418;-73
2021/11/20 07:29:04;;;;;;;;;9.75;8.25;;;;;11.72;100.00;102386.31;5016369;28;45399;-73
2021/11/20 07:31:30;;;;;;;;;9.00;8.50;;;;;11.71;100.00;102380.25;5016303;28;46095;-75
2021/11/20 07:33:56;;;;;;;;;16.75;10.00;;;;;11.69;100.00;102393.88;5018942;28;45319;-74
2021/11/20 07:36:22;;;;;;;;;12.00;9.00;;;;;11.66;100.00;102389.41;5016131;28;45559;-78
2021/11/20 07:38:52;;;;;;;;;11.00;9.75;;;;;11.68;100.00;102394.69;5015021;28;45459;-78
2021/11/20 07:41:18;;;;;;;;;9.75;8.00;;;;;11.68;100.00;102397.28;5015790;28;46222;-78
2021/11/20 07:43:44;;;;;;;;;12.75;8.75;;;;;11.72;100.00;102392.38;5015904;28;45352;-75
2021/11/20 07:46:11;;;;;;;;;10.75;8.75;;;;;11.75;100.00;102391.72;5016183;28;45365;-74
2021/11/20 07:48:37;;;;;;;;;16.25;11.50;;;;;11.74;100.00;102387.31;5016235;28;45305;-73
2021/11/20 07:51:06;;;;;;;;;16.50;12.00;;;;;11.79;100.00;102392.81;5016168;28;46125;-77
2021/11/20 07:53:31;;;;;;;;;15.00;12.25;;;;;11.76;100.00;102388.31;5015262;28;45840;-76
2021/11/20 07:55:57;;;;;;;;;11.50;9.00;;;;;11.73;100.00;102386.41;5015547;28;45426;-75
2021/11/20 07:58:24;;;;;;;;;16.25;12.75;;;;;11.76;100.00;102393.50;5016365;28;45632;-76
2021/11/20 08:00:50;;;;;;;;;16.00;14.75;;;;;11.78;100.00;102397.06;5015504;28;45348;-77
2021/11/20 08:03:16;;;;;;;;;15.25;13.25;;;;;11.79;100.00;102385.91;5015613;28;46302;-77
2021/11/20 08:05:43;;;;;;;;;16.75;13.75;;;;;11.81;100.00;102384.31;5015971;28;45542;-74
2021/11/20 08:08:09;;;;;;;;;12.00;11.75;;;;;11.82;100.00;102382.63;5017267;28;45442;-78
2021/11/20 08:10:36;;;;;;;;;19.25;16.25;;;;;11.81;100.00;102388.63;5014903;28;45896;-71
2021/11/20 08:13:03;;;;;;;;;17.50;13.00;;;;;11.83;100.00;102385.31;5014836;28;45721;-72
2021/11/20 08:15:29;;;;;;;;;16.25;12.75;;;;;11.84;100.00;102393.97;5015814;28;45414;-73
2021/11/20 08:17:56;;;;;;;;;18.25;15.00;;;;;11.79;100.00;102383.31;5015673;28;45479;-78
2021/11/20 08:20:25;;;;;;;;;15.50;10.75;;;;;11.83;100.00;102392.19;4997558;28;47729;-75
2021/11/20 08:22:51;;;;;;;;;16.00;10.50;;;;;11.80;100.00;102390.28;5014577;28;45421;-73
2021/11/20 08:25:20;;;;;;;;;13.50;10.25;;;;;11.80;100.00;102389.41;5014573;28;45580;-73
2021/11/20 08:27:46;;;;;;;;;16.50;14.50;;;;;11.81;100.00;102386.03;5015207;28;45693;-72
2021/11/20 08:30:15;;;;;;;;;13.50;12.00;;;;;11.82;100.00;102382.63;5015057;28;45403;-74
2021/11/20 08:32:43;;;;;;;;;15.50;10.50;;;;;11.79;100.00;102372.03;5014932;28;45495;-71
2021/11/20 08:35:09;;;;;;;;;17.00;13.75;;;;;11.77;100.00;102365.06;5015914;28;45384;-74
2021/11/20 08:37:35;;;;;;;;;12.25;9.75;;;;;11.79;100.00;102378.13;5015527;28;45593;-72
2021/11/20 08:40:06;;;;;;;;;16.50;13.50;;;;;11.79;100.00;102372.94;5015104;28;45339;-74
2021/11/20 08:42:33;;;;;;;;;22.00;15.50;;;;;11.77;100.00;102361.53;4997551;28;45540;-76
2021/11/20 08:44:59;;;;;;;;;15.25;13.00;;;;;11.74;100.00;102366.56;5015233;28;45370;-72
2021/11/20 08:47:25;;;;;;;;;18.75;11.75;;;;;11.72;100.00;102356.06;5015573;28;45603;-72
2021/11/20 08:49:50;;;;;;;;;18.50;15.00;;;;;11.69;100.00;102342.91;5015903;28;45952;-76
2021/11/20 08:52:16;;;;;;;;;23.25;18.00;;;;;11.69;100.00;102344.59;5017907;28;45229;-79
2021/11/20 08:54:42;;;;;;;;;15.50;14.25;;;;;11.65;100.00;102345.22;5018323;28;45285;-72
2021/11/20 08:57:08;;;;;;;;;12.00;11.50;;;;;11.58;100.00;102329.22;5019139;28;45239;-72
2021/11/20 08:59:34;;;;;;;;;15.75;15.25;;;;;11.55;100.00;102333.31;5017878;28;45349;-73
2021/11/20 09:02:03;;;;;;;;;18.75;16.00;;;;;11.55;100.00;102330.72;5026105;28;45367;-73
2021/11/20 09:04:45;;;;;;;;;14.75;12.25;;;;;11.55;100.00;102334.22;5019051;28;45419;-73
2021/11/20 09:07:35;;;;;;;;;14.00;12.75;;;;;11.55;100.00;102334.22;5018326;28;45395;-73
2021/11/20 09:10:19;;;;;;;;;19.00;15.50;;;;;11.46;100.00;102303.41;5018134;28;45363;-72
2021/11/20 09:13:17;;;;;;;;;14.50;12.50;;;;;11.69;100.00;102329.03;5018555;28;45778;-73
2021/11/20 09:15:51;;;;;;;;;14.25;13.25;;;;;11.65;100.00;102312.38;5017745;28;45322;-73
2021/11/20 09:18:18;;;;;;;;;13.00;12.25;;;;;11.79;100.00;102325.34;5018639;28;45333;-77
2021/11/20 09:20:44;;;;;;;;;14.00;12.25;;;;;11.74;100.00;102317.25;5018001;28;46168;-75
2021/11/20 09:23:10;;;;;;;;;14.00;10.00;;;;;11.74;100.00;102317.25;5018247;28;45825;-77
2021/11/20 09:25:37;;;;;;;;;11.25;10.75;;;;;11.72;100.00;102311.06;5018688;28;45309;-73
2021/11/20 09:28:08;;;;;;;;;17.00;15.00;;;;;11.77;100.00;102312.25;5000445;28;45581;-73
2021/11/20 09:30:38;;;;;;;;;14.50;12.25;;;;;11.80;100.00;102316.75;5018125;28;45516;-73
2021/11/20 09:33:03;;;;;;;;;19.25;14.75;;;;;11.79;100.00;102314.97;5018137;28;45950;-73
2021/11/20 09:35:29;;;;;;;;;15.00;11.75;;;;;11.77;100.00;102315.75;5018128;28;45434;-74
2021/11/20 09:37:55;;;;;;;;;14.75;10.75;;;;;11.73;100.00;102299.88;5017726;28;45571;-75
2021/11/20 09:40:23;;;;;;;;;14.50;13.00;;;;;11.79;100.00;102305.47;5017530;28;46000;-78
2021/11/20 09:42:52;;;;;;;;;16.75;13.50;;;;;11.83;100.00;102310.06;5017501;28;45441;-77
2021/11/20 09:45:22;;;;;;;;;16.50;15.25;;;;;11.89;100.00;102302.66;4999968;28;45495;-73
2021/11/20 09:47:50;;;;;;;;;15.75;14.75;;;;;11.91;100.00;102298.47;5017720;28;45233;-75
2021/11/20 09:50:23;;;;;;;;;11.25;9.25;;;;;11.95;100.00;102302.13;5017622;28;46090;-72
2021/11/20 09:52:49;;;;;;;;;13.75;13.75;;;;;11.93;100.00;102290.78;5017471;28;45253;-73
2021/11/20 09:55:24;;;;;;;;;13.25;10.75;;;;;11.98;100.00;102293.72;5017704;28;45349;-73
2021/11/20 09:58:02;;;;;;;;;15.25;13.75;;;;;11.97;100.00;102289.28;5017457;28;45394;-75
2021/11/20 10:00:44;;;;;;;;;16.50;12.75;;;;;11.99;100.00;102291.19;5017233;28;45528;-75
2021/11/20 10:03:25;;;;;;;;;16.75;13.50;;;;;12.03;100.00;102292.28;5016159;28;45780;-75
2021/11/20 10:06:10;;;;;;;;;21.00;15.25;;;;;12.03;100.00;102285.41;4999575;28;45485;-72
2021/11/20 10:08:40;;;;;;;;;17.25;16.50;;;;;12.04;100.00;102278.50;5017970;28;45436;-74
2021/11/20 10:11:08;;;;;;;;;14.25;12.25;;;;;12.06;100.00;102285.56;5017063;28;45365;-72
2021/11/20 10:13:49;;;;;;;;;15.00;14.00;;;;;12.06;100.00;102277.78;5017846;28;45341;-75
2021/11/20 10:16:21;;;;;;;;;17.50;15.75;;;;;11.98;100.00;102254.78;5018626;28;45357;-73
2021/11/20 10:18:52;;;;;;;;;19.00;18.00;;;;;12.10;100.00;102262.41;5017111;28;45297;-72
2021/11/20 10:21:22;;;;;;;;;19.75;16.75;;;;;12.08;100.00;102264.94;5017149;28;45353;-73
2021/11/20 10:23:59;;;;;;;;;17.50;15.25;;;;;12.07;100.00;102261.41;5016791;28;45385;-73
2021/11/20 10:26:59;;;;;;;;;17.00;16.75;;;;;12.03;100.00;102250.75;5017027;28;45400;-72
2021/11/20 10:29:48;;;;;;;;;19.25;17.25;;;;;12.00;100.00;102250.53;5017168;28;45574;-73
2021/11/20 10:32:29;;;;;;;;;19.00;16.75;;;;;12.03;100.00;102258.53;5016820;28;46088;-72
2021/11/20 10:34:59;;;;;;;;;19.75;17.50;;;;;12.01;100.00;102257.53;4998878;28;45889;-74
2021/11/20 10:37:41;;;;;;;;;15.25;13.25;;;;;11.99;100.00;102251.34;5017153;28;45318;-72
2021/11/20 10:40:21;;;;;;;;;15.75;13.25;;;;;12.02;100.00;102256.75;5017328;28;45385;-71
2021/11/20 10:43:14;;;;;;;;;16.50;14.25;;;;;12.02;100.00;102246.34;5016499;28;45422;-71
2021/11/20 10:45:52;;;;;;;;;17.50;16.00;;;;;12.04;100.00;102247.34;5016556;28;45760;-71
2021/11/20 10:48:28;;;;;;;;;14.50;12.50;;;;;12.02;100.00;102247.28;4998752;28;45345;-76
2021/11/20 10:51:22;;;;;;;;;18.25;14.25;;;;;12.05;100.00;102237.06;5016614;28;45403;-71
2021/11/20 10:54:09;;;;;;;;;21.50;16.75;;;;;12.10;100.00;102236.44;5016068;28;45396;-72
2021/11/20 10:56:53;;;;;;;;;15.75;14.75;;;;;12.10;100.00;102223.47;5016859;28;45727;-74
2021/11/20 10:59:50;;;;;;;;;17.75;15.75;;;;;12.15;100.00;102227.25;5017020;28;45392;-73
2021/11/20 11:02:44;;;;;;;;;16.50;13.00;;;;;12.16;100.00;102222.16;5016713;28;45303;-72
2021/11/20 11:05:43;;;;;;;;;16.50;16.25;;;;;12.14;100.00;102215.09;5015548;28;45402;-72
2021/11/20 11:08:27;;;;;;;;;20.25;18.25;;;;;12.15;100.00;102202.19;5016682;28;45193;-74
2021/11/20 11:10:59;;;;;;;;;16.00;15.75;;;;;12.11;100.00;102183.72;5016048;28;45211;-72
2021/11/20 11:13:43;;;;;;;;;12.25;10.50;;;;;12.02;100.00;102176.28;5016426;28;45399;-76
2021/11/20 11:16:24;;;;;;;;;18.75;15.25;;;;;12.09;100.00;102188.84;5016712;28;45260;-74
2021/11/20 11:18:57;;;;;;;;;16.50;15.25;;;;;12.09;100.00;102181.06;5011156;28;45285;-76
2021/11/20 11:21:55;;;;;;;;;18.00;16.00;;;;;12.08;100.00;102176.66;5031327;28;44625;-77